sensor_id;sensor_type;location;lat;lon;timestamp;P1;durP1;ratioP1;P2;durP2;ratioP2
3333;SDS011;1679;50.392;8.008;2023-02-28T00:00:20;5.90;;;4.30;;
3333;SDS011;1679;50.392;8.008;2023-02-28T00:02:46;5.17;;;3.77;;
3333;SDS011;1679;50.392;8.008;2023-02-28T00:05:13;4.70;;;4.30;;
3333;SDS011;1679;50.392;8.008;2023-02-28T00:07:41;6.93;;;4.13;;
3333;SDS011;1679;50.392;8.008;2023-02-28T00:10:07;4.60;;;4.07;;
3333;SDS011;1679;50.392;8.008;2023-02-28T00:12:37;5.03;;;4.63;;
3333;SDS011;1679;50.392;8.008;2023-02-28T00:15:10;5.47;;;4.90;;
3333;SDS011;1679;50.392;8.008;2023-02-28T00:17:35;6.23;;;4.40;;
3333;SDS011;1679;50.392;8.008;2023-02-28T00:20:03;5.20;;;4.70;;
3333;SDS011;1679;50.392;8.008;2023-02-28T00:22:33;5.97;;;4.73;;
3333;SDS011;1679;50.392;8.008;2023-02-28T00:24:59;5.07;;;4.50;;
3333;SDS011;1679;50.392;8.008;2023-02-28T00:27:25;4.90;;;4.50;;
3333;SDS011;1679;50.392;8.008;2023-02-28T00:29:50;5.20;;;4.70;;
3333;SDS011;1679;50.392;8.008;2023-02-28T00:32:19;7.90;;;4.67;;
3333;SDS011;1679;50.392;8.008;2023-02-28T00:34:46;6.00;;;5.40;;
3333;SDS011;1679;50.392;8.008;2023-02-28T00:37:13;5.43;;;4.97;;
3333;SDS011;1679;50.392;8.008;2023-02-28T00:39:39;5.27;;;4.70;;
3333;SDS011;1679;50.392;8.008;2023-02-28T00:42:06;5.57;;;5.10;;
3333;SDS011;1679;50.392;8.008;2023-02-28T00:44:32;6.43;;;4.90;;
3333;SDS011;1679;50.392;8.008;2023-02-28T00:46:58;4.93;;;4.47;;
3333;SDS011;1679;50.392;8.008;2023-02-28T00:49:24;5.63;;;5.10;;
3333;SDS011;1679;50.392;8.008;2023-02-28T00:51:50;5.00;;;4.60;;
3333;SDS011;1679;50.392;8.008;2023-02-28T00:54:16;7.57;;;4.87;;
3333;SDS011;1679;50.392;8.008;2023-02-28T00:56:42;8.57;;;4.57;;
3333;SDS011;1679;50.392;8.008;2023-02-28T00:59:08;5.20;;;4.80;;
3333;SDS011;1679;50.392;8.008;2023-02-28T01:01:34;5.43;;;4.93;;
3333;SDS011;1679;50.392;8.008;2023-02-28T01:03:59;5.20;;;4.70;;
3333;SDS011;1679;50.392;8.008;2023-02-28T01:06:26;5.73;;;5.10;;
3333;SDS011;1679;50.392;8.008;2023-02-28T01:08:52;6.50;;;4.80;;
3333;SDS011;1679;50.392;8.008;2023-02-28T01:11:17;6.63;;;5.00;;
3333;SDS011;1679;50.392;8.008;2023-02-28T01:13:44;6.00;;;4.80;;
3333;SDS011;1679;50.392;8.008;2023-02-28T01:16:10;5.60;;;5.10;;
3333;SDS011;1679;50.392;8.008;2023-02-28T01:18:36;6.43;;;5.13;;
3333;SDS011;1679;50.392;8.008;2023-02-28T01:21:06;5.80;;;5.30;;
3333;SDS011;1679;50.392;8.008;2023-02-28T01:23:34;6.20;;;5.57;;
3333;SDS011;1679;50.392;8.008;2023-02-28T01:26:04;7.67;;;4.90;;
3333;SDS011;1679;50.392;8.008;2023-02-28T01:28:30;5.60;;;5.10;;
3333;SDS011;1679;50.392;8.008;2023-02-28T01:30:56;5.77;;;5.23;;
3333;SDS011;1679;50.392;8.008;2023-02-28T01:33:21;7.70;;;6.03;;
3333;SDS011;1679;50.392;8.008;2023-02-28T01:35:47;5.67;;;5.10;;
3333;SDS011;1679;50.392;8.008;2023-02-28T01:38:14;5.53;;;5.10;;
3333;SDS011;1679;50.392;8.008;2023-02-28T01:40:40;5.60;;;5.00;;
3333;SDS011;1679;50.392;8.008;2023-02-28T01:43:25;6.63;;;5.77;;
3333;SDS011;1679;50.392;8.008;2023-02-28T01:45:53;5.57;;;5.13;;
3333;SDS011;1679;50.392;8.008;2023-02-28T01:48:21;6.40;;;4.83;;
3333;SDS011;1679;50.392;8.008;2023-02-28T01:50:51;9.23;;;6.10;;
3333;SDS011;1679;50.392;8.008;2023-02-28T01:53:19;6.30;;;5.70;;
3333;SDS011;1679;50.392;8.008;2023-02-28T01:55:50;8.40;;;5.83;;
3333;SDS011;1679;50.392;8.008;2023-02-28T01:58:17;6.20;;;5.60;;
3333;SDS011;1679;50.392;8.008;2023-02-28T02:00:43;5.27;;;4.83;;
3333;SDS011;1679;50.392;8.008;2023-02-28T02:03:09;6.23;;;5.00;;
3333;SDS011;1679;50.392;8.008;2023-02-28T02:05:38;5.67;;;4.97;;
3333;SDS011;1679;50.392;8.008;2023-02-28T02:08:06;6.53;;;5.40;;
3333;SDS011;1679;50.392;8.008;2023-02-28T02:10:42;5.87;;;5.27;;
3333;SDS011;1679;50.392;8.008;2023-02-28T02:16:17;5.50;;;4.80;;
3333;SDS011;1679;50.392;8.008;2023-02-28T02:18:57;4.40;;;4.10;;
3333;SDS011;1679;50.392;8.008;2023-02-28T02:21:57;4.60;;;4.20;;
3333;SDS011;1679;50.392;8.008;2023-02-28T02:27:15;5.47;;;4.97;;
3333;SDS011;1679;50.392;8.008;2023-02-28T02:29:53;4.53;;;4.10;;
3333;SDS011;1679;50.392;8.008;2023-02-28T02:35:34;4.23;;;3.93;;
3333;SDS011;1679;50.392;8.008;2023-02-28T02:38:10;6.40;;;4.47;;
3333;SDS011;1679;50.392;8.008;2023-02-28T02:41:08;5.93;;;4.10;;
3333;SDS011;1679;50.392;8.008;2023-02-28T02:43:46;4.93;;;4.50;;
3333;SDS011;1679;50.392;8.008;2023-02-28T02:46:27;4.67;;;4.37;;
3333;SDS011;1679;50.392;8.008;2023-02-28T02:48:57;5.20;;;4.70;;
3333;SDS011;1679;50.392;8.008;2023-02-28T02:51:25;5.00;;;4.03;;
3333;SDS011;1679;50.392;8.008;2023-02-28T02:53:55;5.23;;;4.73;;
3333;SDS011;1679;50.392;8.008;2023-02-28T02:56:27;4.40;;;4.13;;
3333;SDS011;1679;50.392;8.008;2023-02-28T02:58:56;5.27;;;4.87;;
3333;SDS011;1679;50.392;8.008;2023-02-28T03:01:24;4.97;;;4.03;;
3333;SDS011;1679;50.392;8.008;2023-02-28T03:03:55;4.40;;;4.00;;
3333;SDS011;1679;50.392;8.008;2023-02-28T03:06:22;5.10;;;4.60;;
3333;SDS011;1679;50.392;8.008;2023-02-28T03:08:50;4.70;;;4.40;;
3333;SDS011;1679;50.392;8.008;2023-02-28T03:11:15;4.77;;;4.37;;
3333;SDS011;1679;50.392;8.008;2023-02-28T03:24:35;6.30;;;4.80;;
3333;SDS011;1679;50.392;8.008;2023-02-28T03:27:29;6.00;;;4.87;;
3333;SDS011;1679;50.392;8.008;2023-02-28T03:32:52;5.23;;;4.73;;
3333;SDS011;1679;50.392;8.008;2023-02-28T03:35:25;5.37;;;4.90;;
3333;SDS011;1679;50.392;8.008;2023-02-28T03:38:00;7.10;;;5.60;;
3333;SDS011;1679;50.392;8.008;2023-02-28T03:40:51;5.30;;;4.90;;
3333;SDS011;1679;50.392;8.008;2023-02-28T03:43:26;5.97;;;5.47;;
3333;SDS011;1679;50.392;8.008;2023-02-28T03:45:55;5.70;;;5.20;;
3333;SDS011;1679;50.392;8.008;2023-02-28T03:48:27;6.60;;;5.97;;
3333;SDS011;1679;50.392;8.008;2023-02-28T03:51:00;4.90;;;4.40;;
3333;SDS011;1679;50.392;8.008;2023-02-28T03:53:38;5.90;;;5.50;;
3333;SDS011;1679;50.392;8.008;2023-02-28T03:59:07;5.00;;;4.60;;
3333;SDS011;1679;50.392;8.008;2023-02-28T04:01:55;8.37;;;4.87;;
3333;SDS011;1679;50.392;8.008;2023-02-28T04:04:25;6.57;;;5.80;;
3333;SDS011;1679;50.392;8.008;2023-02-28T04:06:52;5.57;;;4.97;;
3333;SDS011;1679;50.392;8.008;2023-02-28T04:09:25;7.00;;;5.60;;
3333;SDS011;1679;50.392;8.008;2023-02-28T04:11:53;6.03;;;5.43;;
3333;SDS011;1679;50.392;8.008;2023-02-28T04:14:21;5.80;;;5.20;;
3333;SDS011;1679;50.392;8.008;2023-02-28T04:16:48;7.23;;;5.97;;
3333;SDS011;1679;50.392;8.008;2023-02-28T04:19:15;6.37;;;5.77;;
3333;SDS011;1679;50.392;8.008;2023-02-28T04:21:41;5.90;;;5.13;;
3333;SDS011;1679;50.392;8.008;2023-02-28T04:24:09;6.40;;;5.80;;
3333;SDS011;1679;50.392;8.008;2023-02-28T04:26:39;6.23;;;5.63;;
3333;SDS011;1679;50.392;8.008;2023-02-28T04:29:08;6.73;;;6.00;;
3333;SDS011;1679;50.392;8.008;2023-02-28T04:31:34;6.00;;;5.40;;
3333;SDS011;1679;50.392;8.008;2023-02-28T04:34:00;7.53;;;6.73;;
3333;SDS011;1679;50.392;8.008;2023-02-28T04:36:26;6.27;;;5.63;;
3333;SDS011;1679;50.392;8.008;2023-02-28T04:38:52;7.33;;;6.63;;
3333;SDS011;1679;50.392;8.008;2023-02-28T04:41:18;6.57;;;5.53;;
3333;SDS011;1679;50.392;8.008;2023-02-28T04:43:44;6.20;;;5.60;;
3333;SDS011;1679;50.392;8.008;2023-02-28T04:46:12;8.83;;;6.00;;
3333;SDS011;1679;50.392;8.008;2023-02-28T04:48:38;5.83;;;5.33;;
3333;SDS011;1679;50.392;8.008;2023-02-28T04:51:05;7.07;;;5.57;;
3333;SDS011;1679;50.392;8.008;2023-02-28T04:53:33;7.93;;;5.73;;
3333;SDS011;1679;50.392;8.008;2023-02-28T04:55:59;6.67;;;5.80;;
3333;SDS011;1679;50.392;8.008;2023-02-28T04:58:26;7.27;;;5.93;;
3333;SDS011;1679;50.392;8.008;2023-02-28T05:00:53;8.23;;;5.60;;
3333;SDS011;1679;50.392;8.008;2023-02-28T05:03:19;8.70;;;6.20;;
3333;SDS011;1679;50.392;8.008;2023-02-28T05:05:47;7.70;;;5.67;;
3333;SDS011;1679;50.392;8.008;2023-02-28T05:08:14;7.90;;;5.70;;
3333;SDS011;1679;50.392;8.008;2023-02-28T05:10:39;8.90;;;5.97;;
3333;SDS011;1679;50.392;8.008;2023-02-28T05:13:05;7.47;;;5.80;;
3333;SDS011;1679;50.392;8.008;2023-02-28T05:15:30;5.17;;;4.77;;
3333;SDS011;1679;50.392;8.008;2023-02-28T05:17:57;6.53;;;5.77;;
3333;SDS011;1679;50.392;8.008;2023-02-28T05:20:22;7.47;;;5.47;;
3333;SDS011;1679;50.392;8.008;2023-02-28T05:22:49;5.90;;;5.37;;
3333;SDS011;1679;50.392;8.008;2023-02-28T05:25:18;12.47;;;6.10;;
3333;SDS011;1679;50.392;8.008;2023-02-28T05:27:45;7.13;;;6.03;;
3333;SDS011;1679;50.392;8.008;2023-02-28T05:30:10;6.33;;;5.50;;
3333;SDS011;1679;50.392;8.008;2023-02-28T05:32:37;8.30;;;6.53;;
3333;SDS011;1679;50.392;8.008;2023-02-28T05:35:04;6.80;;;6.20;;
3333;SDS011;1679;50.392;8.008;2023-02-28T05:37:29;8.00;;;5.97;;
3333;SDS011;1679;50.392;8.008;2023-02-28T05:39:55;7.50;;;6.00;;
3333;SDS011;1679;50.392;8.008;2023-02-28T05:42:21;6.67;;;6.00;;
3333;SDS011;1679;50.392;8.008;2023-02-28T05:44:46;7.17;;;6.57;;
3333;SDS011;1679;50.392;8.008;2023-02-28T05:47:12;7.27;;;6.60;;
3333;SDS011;1679;50.392;8.008;2023-02-28T05:49:40;6.70;;;5.97;;
3333;SDS011;1679;50.392;8.008;2023-02-28T05:52:06;7.23;;;5.37;;
3333;SDS011;1679;50.392;8.008;2023-02-28T05:54:31;6.23;;;5.23;;
3333;SDS011;1679;50.392;8.008;2023-02-28T05:56:57;5.97;;;5.37;;
3333;SDS011;1679;50.392;8.008;2023-02-28T05:59:23;9.30;;;6.00;;
3333;SDS011;1679;50.392;8.008;2023-02-28T06:01:48;7.13;;;6.53;;
3333;SDS011;1679;50.392;8.008;2023-02-28T06:04:16;6.50;;;5.90;;
3333;SDS011;1679;50.392;8.008;2023-02-28T06:06:48;6.80;;;5.50;;
3333;SDS011;1679;50.392;8.008;2023-02-28T06:09:16;7.50;;;6.23;;
3333;SDS011;1679;50.392;8.008;2023-02-28T06:11:42;7.53;;;6.37;;
3333;SDS011;1679;50.392;8.008;2023-02-28T06:14:12;5.93;;;5.33;;
3333;SDS011;1679;50.392;8.008;2023-02-28T06:16:41;7.80;;;5.77;;
3333;SDS011;1679;50.392;8.008;2023-02-28T06:19:09;6.30;;;5.20;;
3333;SDS011;1679;50.392;8.008;2023-02-28T06:21:35;6.30;;;5.70;;
3333;SDS011;1679;50.392;8.008;2023-02-28T06:24:02;5.67;;;5.17;;
3333;SDS011;1679;50.392;8.008;2023-02-28T06:26:28;6.57;;;5.37;;
3333;SDS011;1679;50.392;8.008;2023-02-28T06:28:55;6.73;;;5.60;;
3333;SDS011;1679;50.392;8.008;2023-02-28T06:31:21;8.00;;;5.77;;
3333;SDS011;1679;50.392;8.008;2023-02-28T06:33:47;6.30;;;4.90;;
3333;SDS011;1679;50.392;8.008;2023-02-28T06:36:13;6.67;;;5.37;;
3333;SDS011;1679;50.392;8.008;2023-02-28T06:38:41;6.10;;;5.30;;
3333;SDS011;1679;50.392;8.008;2023-02-28T06:41:07;8.60;;;5.77;;
3333;SDS011;1679;50.392;8.008;2023-02-28T06:43:35;5.50;;;5.00;;
3333;SDS011;1679;50.392;8.008;2023-02-28T06:46:07;7.13;;;5.47;;
3333;SDS011;1679;50.392;8.008;2023-02-28T06:48:35;6.40;;;5.80;;
3333;SDS011;1679;50.392;8.008;2023-02-28T06:51:12;6.07;;;5.47;;
3333;SDS011;1679;50.392;8.008;2023-02-28T06:53:39;7.20;;;5.17;;
3333;SDS011;1679;50.392;8.008;2023-02-28T06:56:06;6.13;;;5.53;;
3333;SDS011;1679;50.392;8.008;2023-02-28T06:58:37;5.70;;;5.20;;
3333;SDS011;1679;50.392;8.008;2023-02-28T07:01:04;6.97;;;4.87;;
3333;SDS011;1679;50.392;8.008;2023-02-28T07:03:30;6.45;;;4.85;;
3333;SDS011;1679;50.392;8.008;2023-02-28T07:05:55;5.30;;;4.80;;
3333;SDS011;1679;50.392;8.008;2023-02-28T07:08:22;5.50;;;5.10;;
3333;SDS011;1679;50.392;8.008;2023-02-28T07:10:51;5.27;;;4.87;;
3333;SDS011;1679;50.392;8.008;2023-02-28T07:13:17;6.17;;;5.57;;
3333;SDS011;1679;50.392;8.008;2023-02-28T07:15:43;6.20;;;5.33;;
3333;SDS011;1679;50.392;8.008;2023-02-28T07:18:08;6.23;;;5.60;;
3333;SDS011;1679;50.392;8.008;2023-02-28T07:20:34;7.93;;;5.67;;
3333;SDS011;1679;50.392;8.008;2023-02-28T07:23:00;6.87;;;5.40;;
3333;SDS011;1679;50.392;8.008;2023-02-28T07:25:27;6.07;;;5.57;;
3333;SDS011;1679;50.392;8.008;2023-02-28T07:27:54;6.50;;;5.73;;
3333;SDS011;1679;50.392;8.008;2023-02-28T07:30:24;6.40;;;5.33;;
3333;SDS011;1679;50.392;8.008;2023-02-28T07:32:51;5.07;;;4.57;;
3333;SDS011;1679;50.392;8.008;2023-02-28T07:35:17;11.47;;;4.77;;
3333;SDS011;1679;50.392;8.008;2023-02-28T07:37:44;5.63;;;4.73;;
3333;SDS011;1679;50.392;8.008;2023-02-28T07:40:10;5.60;;;4.60;;
3333;SDS011;1679;50.392;8.008;2023-02-28T07:42:36;5.93;;;5.30;;
3333;SDS011;1679;50.392;8.008;2023-02-28T07:45:02;5.83;;;5.27;;
3333;SDS011;1679;50.392;8.008;2023-02-28T07:47:29;5.60;;;5.07;;
3333;SDS011;1679;50.392;8.008;2023-02-28T07:49:55;7.47;;;4.67;;
3333;SDS011;1679;50.392;8.008;2023-02-28T07:52:21;5.03;;;4.63;;
3333;SDS011;1679;50.392;8.008;2023-02-28T07:54:48;5.10;;;4.60;;
3333;SDS011;1679;50.392;8.008;2023-02-28T07:57:16;7.33;;;5.30;;
3333;SDS011;1679;50.392;8.008;2023-02-28T07:59:43;6.87;;;5.70;;
3333;SDS011;1679;50.392;8.008;2023-02-28T08:02:16;8.33;;;5.30;;
3333;SDS011;1679;50.392;8.008;2023-02-28T08:04:45;5.60;;;4.70;;
3333;SDS011;1679;50.392;8.008;2023-02-28T08:07:16;4.80;;;4.30;;
3333;SDS011;1679;50.392;8.008;2023-02-28T08:09:43;4.73;;;4.33;;
3333;SDS011;1679;50.392;8.008;2023-02-28T08:12:11;4.93;;;4.53;;
3333;SDS011;1679;50.392;8.008;2023-02-28T08:14:36;6.90;;;4.80;;
3333;SDS011;1679;50.392;8.008;2023-02-28T08:17:04;4.77;;;4.37;;
3333;SDS011;1679;50.392;8.008;2023-02-28T08:19:30;4.80;;;4.33;;
3333;SDS011;1679;50.392;8.008;2023-02-28T08:21:56;4.60;;;4.30;;
3333;SDS011;1679;50.392;8.008;2023-02-28T08:24:22;5.20;;;4.67;;
3333;SDS011;1679;50.392;8.008;2023-02-28T08:26:48;9.10;;;4.53;;
3333;SDS011;1679;50.392;8.008;2023-02-28T08:29:13;5.60;;;4.30;;
3333;SDS011;1679;50.392;8.008;2023-02-28T08:31:39;6.43;;;4.80;;
3333;SDS011;1679;50.392;8.008;2023-02-28T08:34:05;4.87;;;4.40;;
3333;SDS011;1679;50.392;8.008;2023-02-28T08:36:32;5.23;;;4.70;;
3333;SDS011;1679;50.392;8.008;2023-02-28T08:38:57;4.57;;;3.90;;
3333;SDS011;1679;50.392;8.008;2023-02-28T08:41:24;5.30;;;4.50;;
3333;SDS011;1679;50.392;8.008;2023-02-28T08:43:50;6.60;;;4.10;;
3333;SDS011;1679;50.392;8.008;2023-02-28T08:46:16;4.70;;;4.13;;
3333;SDS011;1679;50.392;8.008;2023-02-28T08:48:42;4.77;;;3.77;;
3333;SDS011;1679;50.392;8.008;2023-02-28T08:51:09;4.70;;;3.70;;
3333;SDS011;1679;50.392;8.008;2023-02-28T08:53:37;5.67;;;4.00;;
3333;SDS011;1679;50.392;8.008;2023-02-28T08:56:05;3.53;;;3.23;;
3333;SDS011;1679;50.392;8.008;2023-02-28T08:58:33;4.53;;;4.10;;
3333;SDS011;1679;50.392;8.008;2023-02-28T09:01:00;5.70;;;4.10;;
3333;SDS011;1679;50.392;8.008;2023-02-28T09:03:34;4.87;;;4.40;;
3333;SDS011;1679;50.392;8.008;2023-02-28T09:06:01;3.67;;;3.37;;
3333;SDS011;1679;50.392;8.008;2023-02-28T09:08:28;4.00;;;3.60;;
3333;SDS011;1679;50.392;8.008;2023-02-28T09:10:55;3.80;;;3.50;;
3333;SDS011;1679;50.392;8.008;2023-02-28T09:13:22;4.10;;;3.70;;
3333;SDS011;1679;50.392;8.008;2023-02-28T09:15:49;3.83;;;3.63;;
3333;SDS011;1679;50.392;8.008;2023-02-28T09:18:14;5.57;;;3.70;;
3333;SDS011;1679;50.392;8.008;2023-02-28T09:20:41;3.80;;;3.50;;
3333;SDS011;1679;50.392;8.008;2023-02-28T09:23:07;4.20;;;3.80;;
3333;SDS011;1679;50.392;8.008;2023-02-28T09:25:34;4.47;;;3.80;;
3333;SDS011;1679;50.392;8.008;2023-02-28T09:28:00;3.83;;;3.63;;
3333;SDS011;1679;50.392;8.008;2023-02-28T09:30:27;4.00;;;3.70;;
3333;SDS011;1679;50.392;8.008;2023-02-28T09:32:53;5.00;;;3.50;;
3333;SDS011;1679;50.392;8.008;2023-02-28T09:35:20;4.03;;;3.70;;
3333;SDS011;1679;50.392;8.008;2023-02-28T09:37:47;5.57;;;3.83;;
3333;SDS011;1679;50.392;8.008;2023-02-28T09:40:14;9.63;;;3.40;;
3333;SDS011;1679;50.392;8.008;2023-02-28T09:42:43;4.00;;;3.20;;
3333;SDS011;1679;50.392;8.008;2023-02-28T09:45:21;4.10;;;3.73;;
3333;SDS011;1679;50.392;8.008;2023-02-28T09:47:54;8.03;;;3.53;;
3333;SDS011;1679;50.392;8.008;2023-02-28T09:50:40;6.30;;;3.67;;
3333;SDS011;1679;50.392;8.008;2023-02-28T09:53:33;5.60;;;3.60;;
3333;SDS011;1679;50.392;8.008;2023-02-28T09:56:07;3.17;;;2.97;;
3333;SDS011;1679;50.392;8.008;2023-02-28T10:07:18;3.70;;;3.40;;
3333;SDS011;1679;50.392;8.008;2023-02-28T10:10:06;4.23;;;3.83;;
3333;SDS011;1679;50.392;8.008;2023-02-28T10:12:57;4.50;;;4.10;;
3333;SDS011;1679;50.392;8.008;2023-02-28T10:15:29;8.37;;;5.70;;
3333;SDS011;1679;50.392;8.008;2023-02-28T10:17:58;4.07;;;3.73;;
3333;SDS011;1679;50.392;8.008;2023-02-28T10:20:30;3.87;;;3.60;;
3333;SDS011;1679;50.392;8.008;2023-02-28T10:23:02;6.43;;;4.10;;
3333;SDS011;1679;50.392;8.008;2023-02-28T10:25:35;4.53;;;4.13;;
3333;SDS011;1679;50.392;8.008;2023-02-28T10:28:08;4.13;;;3.80;;
3333;SDS011;1679;50.392;8.008;2023-02-28T10:30:41;4.57;;;4.10;;
3333;SDS011;1679;50.392;8.008;2023-02-28T10:35:51;4.70;;;4.30;;
3333;SDS011;1679;50.392;8.008;2023-02-28T10:38:19;4.33;;;4.03;;
3333;SDS011;1679;50.392;8.008;2023-02-28T10:41:04;4.40;;;3.87;;
3333;SDS011;1679;50.392;8.008;2023-02-28T10:43:37;4.10;;;3.70;;
3333;SDS011;1679;50.392;8.008;2023-02-28T10:48:39;4.47;;;4.17;;
3333;SDS011;1679;50.392;8.008;2023-02-28T10:51:10;4.00;;;3.70;;
3333;SDS011;1679;50.392;8.008;2023-02-28T10:53:38;4.60;;;4.20;;
3333;SDS011;1679;50.392;8.008;2023-02-28T10:56:15;5.47;;;4.93;;
3333;SDS011;1679;50.392;8.008;2023-02-28T11:06:57;4.63;;;4.23;;
3333;SDS011;1679;50.392;8.008;2023-02-28T11:09:28;4.37;;;3.97;;
3333;SDS011;1679;50.392;8.008;2023-02-28T11:11:55;3.97;;;3.67;;
3333;SDS011;1679;50.392;8.008;2023-02-28T11:16:49;3.70;;;3.40;;
3333;SDS011;1679;50.392;8.008;2023-02-28T11:19:17;5.27;;;4.83;;
3333;SDS011;1679;50.392;8.008;2023-02-28T11:21:59;4.63;;;4.23;;
3333;SDS011;1679;50.392;8.008;2023-02-28T11:24:31;4.93;;;4.50;;
3333;SDS011;1679;50.392;8.008;2023-02-28T11:27:00;5.80;;;4.60;;
3333;SDS011;1679;50.392;8.008;2023-02-28T11:29:28;4.33;;;3.93;;
3333;SDS011;1679;50.392;8.008;2023-02-28T11:32:39;5.23;;;4.73;;
3333;SDS011;1679;50.392;8.008;2023-02-28T11:34:47;4.93;;;4.53;;
3333;SDS011;1679;50.392;8.008;2023-02-28T11:37:39;4.00;;;3.70;;
3333;SDS011;1679;50.392;8.008;2023-02-28T11:40:12;4.40;;;4.10;;
3333;SDS011;1679;50.392;8.008;2023-02-28T11:48:17;6.10;;;4.57;;
3333;SDS011;1679;50.392;8.008;2023-02-28T11:51:08;4.43;;;4.03;;
3333;SDS011;1679;50.392;8.008;2023-02-28T11:59:27;4.13;;;3.73;;
3333;SDS011;1679;50.392;8.008;2023-02-28T12:02:15;4.70;;;4.30;;
3333;SDS011;1679;50.392;8.008;2023-02-28T12:05:01;5.47;;;3.90;;
3333;SDS011;1679;50.392;8.008;2023-02-28T12:07:47;4.43;;;4.03;;
3333;SDS011;1679;50.392;8.008;2023-02-28T12:10:29;4.83;;;4.43;;
3333;SDS011;1679;50.392;8.008;2023-02-28T12:13:15;4.70;;;4.40;;
3333;SDS011;1679;50.392;8.008;2023-02-28T12:27:27;5.70;;;5.00;;
3333;SDS011;1679;50.392;8.008;2023-02-28T12:30:21;5.03;;;4.53;;
3333;SDS011;1679;50.392;8.008;2023-02-28T12:33:06;5.03;;;4.63;;
3333;SDS011;1679;50.392;8.008;2023-02-28T12:35:37;6.00;;;5.27;;
3333;SDS011;1679;50.392;8.008;2023-02-28T12:38:31;6.53;;;5.67;;
3333;SDS011;1679;50.392;8.008;2023-02-28T12:43:42;5.23;;;4.73;;
3333;SDS011;1679;50.392;8.008;2023-02-28T12:46:16;5.60;;;5.10;;
3333;SDS011;1679;50.392;8.008;2023-02-28T12:48:57;6.00;;;5.50;;
3333;SDS011;1679;50.392;8.008;2023-02-28T12:51:25;5.40;;;4.90;;
3333;SDS011;1679;50.392;8.008;2023-02-28T12:53:58;6.40;;;5.80;;
3333;SDS011;1679;50.392;8.008;2023-02-28T13:02:21;6.60;;;5.70;;
3333;SDS011;1679;50.392;8.008;2023-02-28T13:05:16;6.43;;;5.93;;
3333;SDS011;1679;50.392;8.008;2023-02-28T13:07:59;5.77;;;5.20;;
3333;SDS011;1679;50.392;8.008;2023-02-28T13:10:45;6.00;;;5.40;;
3333;SDS011;1679;50.392;8.008;2023-02-28T13:13:18;6.10;;;5.50;;
3333;SDS011;1679;50.392;8.008;2023-02-28T13:16:03;6.20;;;5.70;;
3333;SDS011;1679;50.392;8.008;2023-02-28T13:18:33;6.03;;;5.53;;
3333;SDS011;1679;50.392;8.008;2023-02-28T13:21:21;6.33;;;5.73;;
3333;SDS011;1679;50.392;8.008;2023-02-28T13:28:59;6.27;;;5.73;;
3333;SDS011;1679;50.392;8.008;2023-02-28T13:31:29;6.47;;;5.80;;
3333;SDS011;1679;50.392;8.008;2023-02-28T13:36:30;6.20;;;5.70;;
3333;SDS011;1679;50.392;8.008;2023-02-28T13:38:57;5.80;;;5.30;;
3333;SDS011;1679;50.392;8.008;2023-02-28T13:49:23;7.70;;;6.27;;
3333;SDS011;1679;50.392;8.008;2023-02-28T13:51:53;6.70;;;6.17;;
3333;SDS011;1679;50.392;8.008;2023-02-28T13:54:49;7.00;;;6.30;;
3333;SDS011;1679;50.392;8.008;2023-02-28T14:00:13;5.70;;;5.20;;
3333;SDS011;1679;50.392;8.008;2023-02-28T14:03:10;6.83;;;6.17;;
3333;SDS011;1679;50.392;8.008;2023-02-28T14:08:48;6.70;;;6.17;;
3333;SDS011;1679;50.392;8.008;2023-02-28T14:11:26;6.70;;;6.10;;
3333;SDS011;1679;50.392;8.008;2023-02-28T14:13:58;7.17;;;6.50;;
3333;SDS011;1679;50.392;8.008;2023-02-28T14:16:24;7.80;;;6.10;;
3333;SDS011;1679;50.392;8.008;2023-02-28T14:19:02;5.50;;;5.00;;
3333;SDS011;1679;50.392;8.008;2023-02-28T14:27:17;6.13;;;5.53;;
3333;SDS011;1679;50.392;8.008;2023-02-28T14:38:13;8.07;;;6.40;;
3333;SDS011;1679;50.392;8.008;2023-02-28T14:40:43;6.63;;;5.93;;
3333;SDS011;1679;50.392;8.008;2023-02-28T14:43:18;6.90;;;5.90;;
3333;SDS011;1679;50.392;8.008;2023-02-28T14:45:49;6.83;;;6.13;;
3333;SDS011;1679;50.392;8.008;2023-02-28T14:48:16;6.63;;;5.10;;
3333;SDS011;1679;50.392;8.008;2023-02-28T14:50:47;5.93;;;5.37;;
3333;SDS011;1679;50.392;8.008;2023-02-28T14:53:17;6.30;;;5.70;;
3333;SDS011;1679;50.392;8.008;2023-02-28T14:55:46;7.90;;;5.83;;
3333;SDS011;1679;50.392;8.008;2023-02-28T14:58:19;6.77;;;5.33;;
3333;SDS011;1679;50.392;8.008;2023-02-28T15:00:52;6.33;;;5.73;;
3333;SDS011;1679;50.392;8.008;2023-02-28T15:03:20;7.27;;;5.37;;
3333;SDS011;1679;50.392;8.008;2023-02-28T15:05:55;5.30;;;4.70;;
3333;SDS011;1679;50.392;8.008;2023-02-28T15:08:22;6.37;;;5.70;;
3333;SDS011;1679;50.392;8.008;2023-02-28T15:10:56;8.13;;;6.20;;
3333;SDS011;1679;50.392;8.008;2023-02-28T15:13:38;6.23;;;5.73;;
3333;SDS011;1679;50.392;8.008;2023-02-28T15:16:16;5.60;;;5.20;;
3333;SDS011;1679;50.392;8.008;2023-02-28T15:18:50;6.73;;;5.40;;
3333;SDS011;1679;50.392;8.008;2023-02-28T15:21:22;9.30;;;7.30;;
3333;SDS011;1679;50.392;8.008;2023-02-28T15:26:41;7.70;;;5.30;;
3333;SDS011;1679;50.392;8.008;2023-02-28T15:29:15;7.00;;;5.83;;
3333;SDS011;1679;50.392;8.008;2023-02-28T15:31:48;5.80;;;5.30;;
3333;SDS011;1679;50.392;8.008;2023-02-28T15:34:20;9.13;;;6.30;;
3333;SDS011;1679;50.392;8.008;2023-02-28T15:36:47;5.60;;;5.10;;
3333;SDS011;1679;50.392;8.008;2023-02-28T15:39:21;6.37;;;5.87;;
3333;SDS011;1679;50.392;8.008;2023-02-28T15:41:48;6.60;;;5.90;;
3333;SDS011;1679;50.392;8.008;2023-02-28T15:44:23;7.27;;;6.67;;
3333;SDS011;1679;50.392;8.008;2023-02-28T15:47:02;5.57;;;5.07;;
3333;SDS011;1679;50.392;8.008;2023-02-28T15:49:30;7.10;;;5.57;;
3333;SDS011;1679;50.392;8.008;2023-02-28T15:52:03;6.53;;;5.93;;
3333;SDS011;1679;50.392;8.008;2023-02-28T15:54:30;7.93;;;6.00;;
3333;SDS011;1679;50.392;8.008;2023-02-28T15:57:05;7.67;;;5.93;;
3333;SDS011;1679;50.392;8.008;2023-02-28T15:59:36;8.03;;;6.67;;
3333;SDS011;1679;50.392;8.008;2023-02-28T16:02:30;7.43;;;6.33;;
3333;SDS011;1679;50.392;8.008;2023-02-28T16:07:33;17.00;;;6.17;;
3333;SDS011;1679;50.392;8.008;2023-02-28T16:10:04;6.30;;;5.70;;
3333;SDS011;1679;50.392;8.008;2023-02-28T16:12:31;6.30;;;5.80;;
3333;SDS011;1679;50.392;8.008;2023-02-28T16:15:05;6.80;;;6.20;;
3333;SDS011;1679;50.392;8.008;2023-02-28T16:17:34;7.00;;;6.40;;
3333;SDS011;1679;50.392;8.008;2023-02-28T16:20:05;7.50;;;6.80;;
3333;SDS011;1679;50.392;8.008;2023-02-28T16:22:39;7.13;;;6.40;;
3333;SDS011;1679;50.392;8.008;2023-02-28T16:25:07;7.80;;;7.00;;
3333;SDS011;1679;50.392;8.008;2023-02-28T16:27:36;7.17;;;6.50;;
3333;SDS011;1679;50.392;8.008;2023-02-28T16:30:04;8.00;;;7.30;;
3333;SDS011;1679;50.392;8.008;2023-02-28T16:32:32;7.80;;;7.10;;
3333;SDS011;1679;50.392;8.008;2023-02-28T16:35:01;11.80;;;6.40;;
3333;SDS011;1679;50.392;8.008;2023-02-28T16:37:27;8.20;;;7.40;;
3333;SDS011;1679;50.392;8.008;2023-02-28T16:39:52;7.40;;;6.70;;
3333;SDS011;1679;50.392;8.008;2023-02-28T16:42:22;9.73;;;7.37;;
3333;SDS011;1679;50.392;8.008;2023-02-28T16:44:50;8.03;;;6.93;;
3333;SDS011;1679;50.392;8.008;2023-02-28T16:47:17;9.17;;;6.97;;
3333;SDS011;1679;50.392;8.008;2023-02-28T16:49:43;8.40;;;6.90;;
3333;SDS011;1679;50.392;8.008;2023-02-28T16:52:09;7.67;;;6.20;;
3333;SDS011;1679;50.392;8.008;2023-02-28T16:54:36;9.30;;;7.00;;
3333;SDS011;1679;50.392;8.008;2023-02-28T16:57:02;7.20;;;6.50;;
3333;SDS011;1679;50.392;8.008;2023-02-28T16:59:29;7.47;;;6.47;;
3333;SDS011;1679;50.392;8.008;2023-02-28T17:01:56;9.97;;;7.80;;
3333;SDS011;1679;50.392;8.008;2023-02-28T17:04:23;12.20;;;9.23;;
3333;SDS011;1679;50.392;8.008;2023-02-28T17:06:52;9.33;;;7.80;;
3333;SDS011;1679;50.392;8.008;2023-02-28T17:09:19;12.03;;;9.33;;
3333;SDS011;1679;50.392;8.008;2023-02-28T17:11:46;9.50;;;8.00;;
3333;SDS011;1679;50.392;8.008;2023-02-28T17:14:13;11.33;;;9.17;;
3333;SDS011;1679;50.392;8.008;2023-02-28T17:16:40;15.93;;;12.47;;
3333;SDS011;1679;50.392;8.008;2023-02-28T17:19:10;13.50;;;10.30;;
3333;SDS011;1679;50.392;8.008;2023-02-28T17:21:38;13.30;;;9.10;;
3333;SDS011;1679;50.392;8.008;2023-02-28T17:24:06;12.87;;;10.67;;
3333;SDS011;1679;50.392;8.008;2023-02-28T17:26:38;16.27;;;11.50;;
3333;SDS011;1679;50.392;8.008;2023-02-28T17:29:05;13.40;;;10.67;;
3333;SDS011;1679;50.392;8.008;2023-02-28T17:31:49;13.60;;;11.47;;
3333;SDS011;1679;50.392;8.008;2023-02-28T17:34:14;18.87;;;13.20;;
3333;SDS011;1679;50.392;8.008;2023-02-28T17:36:45;24.73;;;16.10;;